createdAt,value
2019-03-08T00:00:27.131Z,0.00
2019-03-08T00:01:27.091Z,0.00
2019-03-08T00:02:27.044Z,0.00
2019-03-08T00:03:27.006Z,0.00
2019-03-08T00:04:26.966Z,0.00
2019-03-08T00:05:26.922Z,0.00
2019-03-08T00:06:26.888Z,0.00
2019-03-08T00:07:26.848Z,0.00
2019-03-08T00:08:26.839Z,0.00
2019-03-08T00:09:26.765Z,0.00
2019-03-08T00:10:26.715Z,0.00
2019-03-08T00:11:26.682Z,0.00
2019-03-08T00:12:26.638Z,0.00
2019-03-08T00:13:26.598Z,0.00
2019-03-08T00:14:26.552Z,0.00
2019-03-08T00:15:26.517Z,0.00
2019-03-08T00:16:26.472Z,0.00
2019-03-08T00:17:26.430Z,0.00
2019-03-08T00:18:26.393Z,0.00
2019-03-08T00:19:26.351Z,0.00
2019-03-08T00:20:26.310Z,0.00
2019-03-08T00:21:26.269Z,0.00
2019-03-08T00:22:26.237Z,0.00
2019-03-08T00:23:26.191Z,0.00
2019-03-08T00:24:26.144Z,0.00
2019-03-08T00:25:26.103Z,0.00
2019-03-08T00:26:26.065Z,0.00
2019-03-08T00:27:26.029Z,0.00
2019-03-08T00:28:25.978Z,0.00
2019-03-08T00:29:25.934Z,0.00
2019-03-08T00:30:25.900Z,0.00
2019-03-08T00:31:25.857Z,0.00
2019-03-08T00:32:25.816Z,0.00
2019-03-08T00:33:25.777Z,0.00
2019-03-08T00:34:25.730Z,0.00
2019-03-08T00:35:25.693Z,0.00
2019-03-08T00:36:25.650Z,0.00
2019-03-08T00:37:25.607Z,0.00
2019-03-08T00:38:25.573Z,0.00
2019-03-08T00:39:25.528Z,0.00
2019-03-08T00:40:25.490Z,0.00
2019-03-08T00:41:25.449Z,0.00
2019-03-08T00:42:25.402Z,0.00
2019-03-08T00:43:25.364Z,0.00
2019-03-08T00:44:25.323Z,0.00
2019-03-08T00:45:25.283Z,0.00
2019-03-08T00:46:25.237Z,0.00
2019-03-08T00:47:25.197Z,0.00
2019-03-08T00:48:25.159Z,0.00
2019-03-08T00:49:25.121Z,0.00
2019-03-08T00:50:25.079Z,0.00
2019-03-08T00:51:25.036Z,0.00
2019-03-08T00:52:24.996Z,0.00
2019-03-08T00:53:24.955Z,0.00
2019-03-08T00:54:24.964Z,0.00
2019-03-08T00:55:24.870Z,0.00
2019-03-08T00:56:24.828Z,0.00
2019-03-08T00:57:24.785Z,0.00
2019-03-08T00:58:24.751Z,0.00
2019-03-08T00:59:24.708Z,0.00
2019-03-08T01:00:24.704Z,0.00
2019-03-08T01:01:24.621Z,0.00
2019-03-08T01:02:24.588Z,0.00
2019-03-08T01:03:24.544Z,0.00
2019-03-08T01:04:24.503Z,0.00
2019-03-08T01:05:24.466Z,0.00
2019-03-08T01:06:24.417Z,0.00
2019-03-08T01:07:24.378Z,0.00
2019-03-08T01:08:24.340Z,0.00
2019-03-08T01:09:24.293Z,0.00
2019-03-08T01:10:24.261Z,0.00
2019-03-08T01:11:24.214Z,0.00
2019-03-08T01:12:24.174Z,0.00
2019-03-08T01:13:24.133Z,0.00
2019-03-08T01:14:24.089Z,0.00
2019-03-08T01:15:24.050Z,0.00
2019-03-08T01:16:25.964Z,0.00
2019-03-08T01:17:23.971Z,0.00
2019-03-08T01:18:23.923Z,0.00
2019-03-08T01:19:23.884Z,0.00
2019-03-08T01:20:23.844Z,0.00
2019-03-08T01:21:23.800Z,0.00
2019-03-08T01:22:23.767Z,0.00
2019-03-08T01:23:23.723Z,0.00
2019-03-08T01:24:23.682Z,0.00
2019-03-08T01:25:23.642Z,0.00
2019-03-08T01:26:23.595Z,0.00
2019-03-08T01:27:23.556Z,0.00
2019-03-08T01:28:23.515Z,0.00
2019-03-08T01:29:23.470Z,0.00
2019-03-08T01:30:23.435Z,0.00
2019-03-08T01:31:23.396Z,0.00
2019-03-08T01:32:23.349Z,0.00
2019-03-08T01:33:23.307Z,0.00
2019-03-08T01:34:23.272Z,0.00
2019-03-08T01:35:23.229Z,0.00
2019-03-08T01:36:23.188Z,0.00
2019-03-08T01:37:23.148Z,0.00
2019-03-08T01:38:23.103Z,0.00
2019-03-08T01:39:23.062Z,0.00
2019-03-08T01:40:23.021Z,0.00
2019-03-08T01:41:22.977Z,0.00
2019-03-08T01:42:22.944Z,0.00
2019-03-08T01:43:22.905Z,0.00
2019-03-08T01:44:22.859Z,0.00
2019-03-08T01:45:22.821Z,0.00
2019-03-08T01:46:22.772Z,0.00
2019-03-08T01:47:22.734Z,0.00
2019-03-08T01:48:22.697Z,0.00
2019-03-08T01:49:22.656Z,0.00
2019-03-08T01:50:22.610Z,0.00
2019-03-08T01:51:22.569Z,0.00
2019-03-08T01:52:22.529Z,0.00
2019-03-08T01:53:22.485Z,0.00
2019-03-08T01:54:22.451Z,0.00
2019-03-08T01:55:22.406Z,0.00
2019-03-08T01:56:22.366Z,0.00
2019-03-08T01:57:22.326Z,0.00
2019-03-08T01:58:22.279Z,0.00
2019-03-08T01:59:22.247Z,0.00
2019-03-08T02:00:22.199Z,0.00
2019-03-08T02:01:22.156Z,0.00
2019-03-08T02:02:22.121Z,0.00
2019-03-08T02:03:22.079Z,0.00
2019-03-08T02:04:22.035Z,0.00
2019-03-08T02:05:21.992Z,0.00
2019-03-08T02:06:21.957Z,0.00
2019-03-08T02:07:21.915Z,0.00
2019-03-08T02:08:21.874Z,0.00
2019-03-08T02:09:21.833Z,0.00
2019-03-08T02:10:21.786Z,0.00
2019-03-08T02:11:21.748Z,0.00
2019-03-08T02:12:21.706Z,0.00
2019-03-08T02:13:21.663Z,0.00
2019-03-08T02:14:21.629Z,0.00
2019-03-08T02:15:21.588Z,0.00
2019-03-08T02:16:21.546Z,0.00
2019-03-08T02:17:21.505Z,0.00
2019-03-08T02:18:21.458Z,0.00
2019-03-08T02:19:21.418Z,0.00
2019-03-08T02:20:21.379Z,0.00
2019-03-08T02:21:21.340Z,0.00
2019-03-08T02:22:21.294Z,0.00
2019-03-08T02:23:21.254Z,0.00
2019-03-08T02:24:21.213Z,0.00
2019-03-08T02:25:21.169Z,0.00
2019-03-08T02:26:21.134Z,0.00
2019-03-08T02:27:21.091Z,0.00
2019-03-08T02:28:21.053Z,0.00
2019-03-08T02:29:21.010Z,0.00
2019-03-08T02:30:20.965Z,0.00
2019-03-08T02:31:20.965Z,0.00
2019-03-08T02:32:20.883Z,0.00
2019-03-08T02:33:20.841Z,0.00
2019-03-08T02:34:20.806Z,0.00
2019-03-08T02:36:52.842Z,0.00
2019-03-08T02:37:52.777Z,0.00
2019-03-08T02:38:52.738Z,0.00
2019-03-08T02:39:52.699Z,0.00
2019-03-08T02:40:52.653Z,0.00
2019-03-08T02:41:52.614Z,0.00
2019-03-08T02:42:52.571Z,0.00
2019-03-08T02:43:52.532Z,0.00
2019-03-08T02:44:52.493Z,0.00
2019-03-08T02:45:52.449Z,0.00
2019-03-08T02:46:52.411Z,0.00
2019-03-08T02:47:52.367Z,0.00
2019-03-08T02:48:52.322Z,0.00
2019-03-08T02:49:52.283Z,0.00
2019-03-08T02:50:52.240Z,0.00
2019-03-08T02:51:52.197Z,0.00
2019-03-08T02:52:52.162Z,0.00
2019-03-08T02:53:52.119Z,0.00
2019-03-08T02:54:52.076Z,0.00
2019-03-08T02:55:52.033Z,0.00
2019-03-08T02:56:51.997Z,0.00
2019-03-08T02:57:51.953Z,0.00
2019-03-08T02:58:51.920Z,0.00
2019-03-08T02:59:51.875Z,0.00
2019-03-08T03:00:51.827Z,0.00
2019-03-08T03:01:51.791Z,0.00
2019-03-08T03:02:51.746Z,0.00
2019-03-08T03:03:51.703Z,0.00
2019-03-08T03:04:51.668Z,0.00
2019-03-08T03:05:51.624Z,0.00
2019-03-08T03:06:51.584Z,0.00
2019-03-08T03:07:51.543Z,0.00
2019-03-08T03:08:51.500Z,0.00
2019-03-08T03:09:51.457Z,0.00
2019-03-08T03:10:51.418Z,0.00
2019-03-08T03:11:51.378Z,0.00
2019-03-08T03:12:51.331Z,0.00
2019-03-08T03:13:51.299Z,0.00
2019-03-08T03:14:51.254Z,0.00
2019-03-08T03:15:51.207Z,0.00
2019-03-08T03:16:51.175Z,0.00
2019-03-08T03:17:51.131Z,0.00
2019-03-08T03:18:51.089Z,0.00
2019-03-08T03:19:51.050Z,0.00
2019-03-08T03:20:51.005Z,0.00
2019-03-08T03:21:50.964Z,0.00
2019-03-08T03:22:50.924Z,0.00
2019-03-08T03:23:50.878Z,0.00
2019-03-08T03:24:50.844Z,0.00
2019-03-08T03:25:50.801Z,0.00
2019-03-08T03:26:50.760Z,0.00
2019-03-08T03:27:50.715Z,0.00
2019-03-08T03:28:50.682Z,0.00
2019-03-08T03:43:32.673Z,0.00
2019-03-08T03:44:32.600Z,0.00
2019-03-08T03:45:32.549Z,0.00
2019-03-08T03:46:32.507Z,0.00
2019-03-08T03:47:32.461Z,0.00
2019-03-08T03:48:32.415Z,0.00
2019-03-08T03:49:32.379Z,0.00
2019-03-08T03:50:32.335Z,0.00
2019-03-08T03:51:32.291Z,0.00
2019-03-08T03:52:32.250Z,0.00
2019-03-08T03:53:32.202Z,0.00
2019-03-08T03:54:32.161Z,0.00
2019-03-08T03:55:32.120Z,0.00
2019-03-08T03:56:32.080Z,0.00
2019-03-08T03:57:32.035Z,0.00
2019-03-08T03:58:31.994Z,0.00
2019-03-08T03:59:31.951Z,0.00
2019-03-08T04:00:31.911Z,0.00
2019-03-08T04:01:31.872Z,0.00
2019-03-08T04:02:31.826Z,0.00
2019-03-08T04:03:31.784Z,0.00
2019-03-08T04:04:31.744Z,0.00
2019-03-08T04:05:31.700Z,0.00
2019-03-08T04:06:31.658Z,0.00
2019-03-08T04:07:31.616Z,0.00
2019-03-08T04:08:31.573Z,0.00
2019-03-08T04:09:31.536Z,0.00
2019-03-08T04:10:31.493Z,0.00
2019-03-08T04:11:31.452Z,0.00
2019-03-08T04:12:31.405Z,0.00
2019-03-08T04:13:31.370Z,0.00
2019-03-08T04:14:31.330Z,0.00
2019-03-08T04:15:31.285Z,0.00
2019-03-08T04:16:31.246Z,0.00
2019-03-08T04:17:31.200Z,0.00
2019-03-08T04:18:31.161Z,0.00
2019-03-08T04:19:31.117Z,0.00
2019-03-08T04:20:31.074Z,0.00
2019-03-08T04:21:31.040Z,0.00
2019-03-08T04:22:30.995Z,0.00
2019-03-08T04:23:30.954Z,0.00
2019-03-08T04:24:30.947Z,0.00
2019-03-08T04:25:30.867Z,0.00
2019-03-08T04:26:30.832Z,0.00
2019-03-08T04:27:30.788Z,0.00
2019-03-08T04:28:30.749Z,0.00
2019-03-08T04:29:30.702Z,0.00
2019-03-08T04:30:30.663Z,0.00
2019-03-08T04:31:30.621Z,0.00
2019-03-08T04:32:30.577Z,0.00
2019-03-08T04:33:30.543Z,0.00
2019-03-08T04:34:30.500Z,0.00
2019-03-08T04:35:30.457Z,0.00
2019-03-08T04:36:30.434Z,0.00
2019-03-08T04:37:30.370Z,0.00
2019-03-08T04:38:30.333Z,0.00
2019-03-08T04:39:30.293Z,0.00
2019-03-08T04:40:30.247Z,0.00
2019-03-08T04:41:30.216Z,0.00
2019-03-08T04:42:30.169Z,0.00
2019-03-08T04:43:30.124Z,0.00
2019-03-08T04:44:30.080Z,0.00
2019-03-08T04:45:30.046Z,0.00
2019-03-08T04:46:30.004Z,0.00
2019-03-08T04:47:29.961Z,0.00
2019-03-08T04:48:29.921Z,0.00
2019-03-08T04:49:29.874Z,0.00
2019-03-08T04:50:29.836Z,0.00
2019-03-08T04:51:29.793Z,0.00
2019-03-08T04:52:29.751Z,0.00
2019-03-08T04:53:29.718Z,0.00
2019-03-08T04:54:29.671Z,0.00
2019-03-08T04:55:29.629Z,0.00
2019-03-08T04:56:29.591Z,0.00
2019-03-08T04:57:29.543Z,0.00
2019-03-08T04:58:29.503Z,0.00
2019-03-08T04:59:29.464Z,0.00
2019-03-08T05:00:29.426Z,0.00
2019-03-08T05:01:29.377Z,0.00
2019-03-08T05:02:29.339Z,0.00
2019-03-08T05:03:29.297Z,0.00
2019-03-08T05:04:29.256Z,0.00
2019-03-08T05:05:29.218Z,0.00
2019-03-08T05:06:29.176Z,0.00
2019-03-08T05:07:29.133Z,0.00
2019-03-08T05:08:29.094Z,0.00
2019-03-08T05:09:29.048Z,0.00
2019-03-08T05:10:29.009Z,0.00
2019-03-08T05:11:28.965Z,0.00
2019-03-08T05:12:30.964Z,0.00
2019-03-08T05:13:28.887Z,0.00
2019-03-08T05:14:28.844Z,0.00
2019-03-08T05:15:28.799Z,0.00
2019-03-08T05:16:28.758Z,0.00
2019-03-08T05:17:28.722Z,0.00
2019-03-08T05:18:28.681Z,0.00
2019-03-08T05:19:28.638Z,0.00
2019-03-08T05:20:28.597Z,0.00
2019-03-08T05:21:28.549Z,0.00
2019-03-08T05:22:28.513Z,0.00
2019-03-08T05:23:28.470Z,0.00
2019-03-08T05:24:28.426Z,0.00
2019-03-08T05:25:28.390Z,0.00
2019-03-08T05:26:28.347Z,0.00
2019-03-08T05:27:28.304Z,0.00
2019-03-08T05:28:28.270Z,0.00
2019-03-08T05:29:28.220Z,0.00
2019-03-08T05:30:28.181Z,0.00
2019-03-08T05:31:28.140Z,0.00
2019-03-08T05:32:28.101Z,0.00
2019-03-08T05:33:28.056Z,0.00
2019-03-08T05:34:28.016Z,0.00
2019-03-08T05:35:27.973Z,0.00
2019-03-08T05:36:27.929Z,0.00
2019-03-08T05:37:27.893Z,0.00
2019-03-08T05:38:27.850Z,0.00
2019-03-08T05:39:27.811Z,0.00
2019-03-08T05:40:27.769Z,0.00
2019-03-08T05:41:27.723Z,0.00
2019-03-08T05:42:27.683Z,4.00
2019-03-08T05:43:27.641Z,4.00
2019-03-08T05:44:27.598Z,0.00
2019-03-08T05:45:27.563Z,4.00
2019-03-08T05:46:27.523Z,4.00
2019-03-08T05:47:27.477Z,0.00
2019-03-08T05:48:27.432Z,4.00
2019-03-08T05:49:27.397Z,4.00
2019-03-08T05:50:27.359Z,4.00
2019-03-08T05:51:27.312Z,8.00
2019-03-08T05:52:27.275Z,8.00
2019-03-08T05:53:27.226Z,8.00
2019-03-08T05:54:27.187Z,8.00
2019-03-08T05:55:27.147Z,12.00
2019-03-08T05:56:27.102Z,12.00
2019-03-08T05:57:27.067Z,16.00
2019-03-08T05:58:27.024Z,16.00
2019-03-08T05:59:26.981Z,20.00
2019-03-08T06:00:32.081Z,24.00
2019-03-08T06:01:26.896Z,24.00
2019-03-08T06:02:26.857Z,28.00
2019-03-08T06:03:26.816Z,32.00
2019-03-08T06:04:26.776Z,32.00
2019-03-08T06:05:26.730Z,36.00
2019-03-08T06:06:26.693Z,36.00
2019-03-08T06:07:26.649Z,36.00
2019-03-08T06:08:26.606Z,40.00
2019-03-08T06:09:26.572Z,40.00
2019-03-08T06:10:26.537Z,40.00
2019-03-08T06:11:26.486Z,44.00
2019-03-08T06:12:26.447Z,40.00
2019-03-08T06:13:26.401Z,40.00
2019-03-08T06:14:26.361Z,44.00
2019-03-08T06:15:26.319Z,40.00
2019-03-08T06:16:26.278Z,40.00
2019-03-08T06:17:26.241Z,44.00
2019-03-08T06:18:26.199Z,44.00
2019-03-08T06:19:26.153Z,48.00
2019-03-08T06:20:26.109Z,56.00
2019-03-08T06:21:26.079Z,64.00
2019-03-08T06:22:26.032Z,68.00
2019-03-08T06:23:25.990Z,68.00
2019-03-08T06:24:25.951Z,64.00
2019-03-08T06:25:25.906Z,72.00
2019-03-08T06:26:25.864Z,84.00
2019-03-08T06:27:25.823Z,100.00
2019-03-08T06:28:25.781Z,128.00
2019-03-08T06:29:25.746Z,140.00
2019-03-08T06:30:25.706Z,156.00
2019-03-08T06:31:25.658Z,176.00
2019-03-08T06:32:25.620Z,188.00
2019-03-08T06:33:25.572Z,188.00
2019-03-08T06:34:25.534Z,184.00
2019-03-08T06:35:25.494Z,184.00
2019-03-08T06:36:25.453Z,188.00
2019-03-08T06:37:25.412Z,188.00
2019-03-08T06:38:25.367Z,180.00
2019-03-08T06:39:25.328Z,172.00
2019-03-08T06:40:25.282Z,168.00
2019-03-08T06:41:25.246Z,172.00
2019-03-08T06:42:25.203Z,172.00
2019-03-08T06:43:25.161Z,168.00
2019-03-08T06:44:25.119Z,168.00
2019-03-08T06:45:25.075Z,164.00
2019-03-08T06:46:25.035Z,164.00
2019-03-08T06:47:24.997Z,164.00
2019-03-08T06:48:24.949Z,164.00
2019-03-08T06:49:24.921Z,160.00
2019-03-08T06:50:24.870Z,168.00
2019-03-08T06:51:24.827Z,184.00
2019-03-08T06:52:24.783Z,204.00
2019-03-08T06:53:24.748Z,220.00
2019-03-08T06:54:24.709Z,240.00
2019-03-08T06:55:24.663Z,252.00
2019-03-08T06:56:24.629Z,264.00
2019-03-08T06:57:24.578Z,272.00
2019-03-08T06:58:24.537Z,272.00
2019-03-08T06:59:24.492Z,292.00
2019-03-08T07:00:24.454Z,316.00
2019-03-08T07:01:24.415Z,348.00
2019-03-08T07:02:24.374Z,372.00
2019-03-08T07:03:24.331Z,400.00
2019-03-08T07:04:24.290Z,432.00
2019-03-08T07:05:24.245Z,452.00
2019-03-08T07:06:24.202Z,472.00
2019-03-08T07:07:24.166Z,516.00
2019-03-08T07:08:24.125Z,572.00
2019-03-08T07:09:24.094Z,604.00
2019-03-08T07:10:24.037Z,624.00
2019-03-08T07:11:23.992Z,652.00
2019-03-08T07:12:23.955Z,696.00
2019-03-08T07:13:23.914Z,752.00
2019-03-08T07:14:23.875Z,836.00
2019-03-08T07:15:23.833Z,876.00
2019-03-08T07:16:23.791Z,868.00
2019-03-08T07:17:23.747Z,856.00
2019-03-08T07:18:23.703Z,876.00
2019-03-08T07:19:23.660Z,888.00
2019-03-08T07:20:23.623Z,928.00
2019-03-08T07:21:23.593Z,944.00
2019-03-08T07:22:23.542Z,968.00
2019-03-08T07:23:27.819Z,988.00
2019-03-08T07:24:23.458Z,1032.00
2019-03-08T07:25:23.415Z,1080.00
2019-03-08T07:26:23.401Z,1092.00
2019-03-08T07:27:23.334Z,1124.00
2019-03-08T07:28:23.292Z,1140.00
2019-03-08T07:29:23.248Z,1152.00
2019-03-08T07:30:23.205Z,1164.00
2019-03-08T07:31:23.162Z,1220.00
2019-03-08T07:32:23.132Z,1284.00
2019-03-08T07:33:23.083Z,1212.00
2019-03-08T07:34:23.047Z,1292.00
2019-03-08T07:35:23.002Z,1324.00
2019-03-08T07:36:24.775Z,1320.00
2019-03-08T07:37:22.914Z,1268.00
2019-03-08T07:38:22.875Z,1304.00
2019-03-08T07:39:22.837Z,1500.00
2019-03-08T07:40:22.800Z,1428.00
2019-03-08T07:41:22.756Z,1412.00
2019-03-08T07:42:22.717Z,1372.00
2019-03-08T07:43:22.665Z,1236.00
2019-03-08T07:44:22.626Z,1244.00
2019-03-08T07:45:22.589Z,1368.00
2019-03-08T07:46:22.550Z,1464.00
2019-03-08T07:47:22.506Z,1648.00
2019-03-08T07:48:22.462Z,1484.00
2019-03-08T07:49:22.486Z,1696.00
2019-03-08T07:50:22.377Z,1848.00
2019-03-08T07:51:22.333Z,1404.00
2019-03-08T07:52:22.295Z,1016.00
2019-03-08T07:53:22.258Z,948.00
2019-03-08T07:54:22.216Z,1080.00
2019-03-08T07:55:22.167Z,1360.00
2019-03-08T07:56:22.129Z,1568.00
2019-03-08T07:57:22.092Z,1708.00
2019-03-08T07:58:22.053Z,1604.00
2019-03-08T07:59:22.008Z,1548.00
2019-03-08T08:00:21.970Z,1456.00
2019-03-08T08:01:21.928Z,1412.00
2019-03-08T08:02:21.880Z,1356.00
2019-03-08T08:03:21.837Z,1300.00
2019-03-08T08:04:21.804Z,1292.00
2019-03-08T08:05:21.763Z,1200.00
2019-03-08T08:06:21.720Z,1072.00
2019-03-08T08:07:21.679Z,1016.00
2019-03-08T08:08:21.635Z,1132.00
2019-03-08T08:09:21.592Z,1256.00
2019-03-08T08:10:21.548Z,1512.00
2019-03-08T08:11:21.512Z,1540.00
2019-03-08T08:12:21.471Z,1408.00
2019-03-08T08:13:21.430Z,1180.00
2019-03-08T08:14:21.385Z,1012.00
2019-03-08T08:15:21.345Z,924.00
2019-03-08T08:16:21.304Z,1052.00
2019-03-08T08:17:21.265Z,1300.00
2019-03-08T08:18:21.225Z,1548.00
2019-03-08T08:19:21.185Z,1684.00
2019-03-08T08:20:21.140Z,1880.00
2019-03-08T08:21:21.098Z,1956.00
2019-03-08T08:22:21.055Z,1968.00
2019-03-08T08:23:21.015Z,2000.00
2019-03-08T08:24:20.975Z,2008.00
2019-03-08T08:25:20.934Z,2044.00
2019-03-08T08:26:20.894Z,2080.00
2019-03-08T08:27:20.849Z,1956.00
2019-03-08T08:28:20.808Z,1952.00
2019-03-08T08:29:20.769Z,1932.00
2019-03-08T08:30:20.731Z,2028.00
2019-03-08T08:31:20.688Z,2088.00
2019-03-08T08:32:20.647Z,2140.00
2019-03-08T08:33:20.604Z,2176.00
2019-03-08T08:34:21.873Z,2356.00
2019-03-08T08:35:20.517Z,2660.00
2019-03-08T08:36:29.145Z,2968.00
2019-03-08T08:38:24.889Z,2860.00
2019-03-08T08:39:24.815Z,2776.00
2019-03-08T08:40:24.780Z,2708.00
2019-03-08T08:41:24.736Z,2696.00
2019-03-08T08:42:24.693Z,2680.00
2019-03-08T08:43:24.650Z,2568.00
2019-03-08T08:44:24.630Z,2416.00
2019-03-08T08:45:24.573Z,2204.00
2019-03-08T08:46:24.531Z,1984.00
2019-03-08T08:47:24.495Z,1924.00
2019-03-08T08:48:24.451Z,1784.00
2019-03-08T08:49:24.409Z,1696.00
2019-03-08T08:50:24.389Z,1584.00
2019-03-08T08:51:24.326Z,1544.00
2019-03-08T08:52:24.283Z,1432.00
2019-03-08T08:53:26.059Z,1312.00
2019-03-08T08:54:24.205Z,1256.00
2019-03-08T08:55:24.164Z,1368.00
2019-03-08T08:56:24.116Z,1300.00
2019-03-08T08:57:24.077Z,1424.00
2019-03-08T08:58:24.041Z,1392.00
2019-03-08T08:59:24.002Z,1448.00
2019-03-08T09:00:23.960Z,1416.00
2019-03-08T09:01:23.917Z,1724.00
2019-03-08T09:02:23.872Z,1924.00
2019-03-08T09:03:23.830Z,1796.00
2019-03-08T09:04:23.789Z,1616.00
2019-03-08T09:05:23.750Z,1544.00
2019-03-08T09:06:23.711Z,1600.00
2019-03-08T09:07:23.676Z,1784.00
2019-03-08T09:08:23.633Z,1924.00
2019-03-08T09:09:23.590Z,2124.00
2019-03-08T09:10:23.546Z,1960.00
2019-03-08T09:11:23.504Z,1796.00
2019-03-08T09:12:23.469Z,1644.00
2019-03-08T09:13:23.425Z,1580.00
2019-03-08T09:14:23.385Z,1524.00
2019-03-08T09:15:23.343Z,1732.00
2019-03-08T09:16:23.298Z,2072.00
2019-03-08T09:17:23.259Z,2316.00
2019-03-08T09:18:23.222Z,2384.00
2019-03-08T09:19:23.188Z,2588.00
2019-03-08T09:20:23.143Z,2884.00
2019-03-08T09:21:23.101Z,4060.00
2019-03-08T09:22:23.055Z,4208.00
2019-03-08T09:23:23.012Z,5856.00
2019-03-08T09:24:22.971Z,4372.00
2019-03-08T09:25:22.937Z,4404.00
2019-03-08T09:26:22.903Z,4168.00
2019-03-08T09:27:22.854Z,4100.00
2019-03-08T09:28:22.809Z,4084.00
2019-03-08T09:29:22.769Z,4060.00
2019-03-08T09:30:22.730Z,3828.00
2019-03-08T09:31:22.692Z,3692.00
2019-03-08T09:32:22.652Z,3652.00
2019-03-08T09:33:22.610Z,3616.00
2019-03-08T09:34:22.566Z,3460.00
2019-03-08T09:35:22.526Z,3240.00
2019-03-08T09:36:22.481Z,3160.00
2019-03-08T09:37:22.443Z,3044.00
2019-03-08T09:38:22.407Z,2864.00
2019-03-08T09:39:22.369Z,2784.00
2019-03-08T09:40:22.325Z,2852.00
2019-03-08T09:41:22.294Z,2924.00
2019-03-08T09:42:22.240Z,3220.00
2019-03-08T09:57:23.829Z,2004.00
2019-03-08T09:58:23.761Z,2024.00
2019-03-08T09:59:23.717Z,1940.00
2019-03-08T10:00:23.667Z,1916.00
2019-03-08T10:01:23.624Z,2024.00
2019-03-08T10:02:23.608Z,2360.00
2019-03-08T10:03:23.542Z,2688.00
2019-03-08T10:04:23.501Z,2892.00
2019-03-08T10:05:23.477Z,3532.00
2019-03-08T10:06:23.409Z,4688.00
2019-03-08T10:07:23.366Z,3776.00
2019-03-08T10:08:23.324Z,5616.00
2019-03-08T10:09:23.283Z,3648.00
2019-03-08T10:10:23.244Z,5060.00
2019-03-08T10:11:23.213Z,3588.00
2019-03-08T10:12:23.164Z,4716.00
2019-03-08T10:13:23.121Z,3204.00
2019-03-08T10:14:23.079Z,3832.00
2019-03-08T10:15:23.036Z,3364.00
2019-03-08T10:16:22.999Z,3504.00
2019-03-08T10:17:22.963Z,3552.00
2019-03-08T10:18:22.914Z,4908.00
2019-03-08T10:19:22.870Z,4080.00
2019-03-08T10:20:22.830Z,2756.00
2019-03-08T10:21:22.789Z,2508.00
2019-03-08T10:22:22.753Z,2540.00
2019-03-08T10:23:22.713Z,2600.00
2019-03-08T10:24:22.666Z,2580.00
2019-03-08T10:25:22.625Z,2804.00
2019-03-08T10:26:22.588Z,3064.00
2019-03-08T10:27:22.551Z,3324.00
2019-03-08T10:28:22.508Z,5472.00
2019-03-08T10:29:22.468Z,3476.00
2019-03-08T10:30:22.422Z,4012.00
2019-03-08T10:31:22.381Z,3360.00
2019-03-08T10:32:22.345Z,4732.00
2019-03-08T10:33:22.303Z,4672.00
2019-03-08T10:34:22.262Z,4684.00
2019-03-08T10:35:24.103Z,4676.00
2019-03-08T10:36:22.181Z,2708.00
2019-03-08T10:37:22.139Z,5020.00
2019-03-08T10:38:22.848Z,3808.00
2019-03-08T10:39:22.064Z,5680.00
2019-03-08T10:40:22.022Z,5856.00
2019-03-08T10:41:21.979Z,4624.00
2019-03-08T10:42:21.937Z,4656.00
2019-03-08T10:43:21.899Z,3980.00
2019-03-08T10:44:21.854Z,2864.00
2019-03-08T10:45:21.817Z,2536.00
2019-03-08T10:46:21.777Z,2524.00
2019-03-08T10:47:21.740Z,2248.00
2019-03-08T10:48:21.695Z,2108.00
2019-03-08T10:49:21.655Z,1908.00
2019-03-08T10:50:21.618Z,1940.00
2019-03-08T10:51:21.578Z,2264.00
2019-03-08T10:52:21.538Z,2496.00
2019-03-08T10:53:21.497Z,2448.00
2019-03-08T10:54:21.456Z,2540.00
2019-03-08T10:55:21.413Z,2820.00
2019-03-08T10:56:21.372Z,3244.00
2019-03-08T10:57:21.333Z,3240.00
2019-03-08T10:58:21.299Z,3152.00
2019-03-08T10:59:21.262Z,3124.00
2019-03-08T11:00:21.219Z,3080.00
2019-03-08T11:01:21.175Z,3152.00
2019-03-08T11:02:21.134Z,3060.00
2019-03-08T11:03:21.091Z,3300.00
2019-03-08T11:04:21.058Z,3532.00
2019-03-08T11:05:21.013Z,3652.00
2019-03-08T11:06:20.974Z,3760.00
2019-03-08T11:07:20.931Z,3884.00
2019-03-08T11:08:29.350Z,3660.00
2019-03-08T11:09:20.851Z,5852.00
2019-03-08T11:10:20.812Z,3488.00
2019-03-08T11:11:20.774Z,5092.00
2019-03-08T11:12:20.736Z,4956.00
2019-03-08T11:13:20.693Z,3112.00
2019-03-08T11:14:20.652Z,3324.00
2019-03-08T11:15:24.468Z,2748.00
2019-03-08T11:16:20.568Z,2816.00
2019-03-08T11:17:20.531Z,3024.00
2019-03-08T11:18:20.495Z,3304.00
2019-03-08T11:19:20.453Z,3328.00
2019-03-08T11:20:20.409Z,3688.00
2019-03-08T11:21:20.370Z,3260.00
2019-03-08T11:22:20.332Z,3120.00
2019-03-08T11:23:20.293Z,3088.00
2019-03-08T11:24:20.255Z,3124.00
2019-03-08T11:25:20.212Z,3932.00
2019-03-08T11:26:20.197Z,5172.00
2019-03-08T11:27:20.125Z,5956.00
2019-03-08T11:28:21.237Z,3832.00
2019-03-08T11:29:20.053Z,4024.00
2019-03-08T11:30:21.750Z,3424.00
2019-03-08T11:31:19.972Z,3304.00
2019-03-08T11:32:23.141Z,3028.00
2019-03-08T11:33:19.892Z,3016.00
2019-03-08T11:34:19.850Z,3208.00
2019-03-08T11:35:19.805Z,4636.00
2019-03-08T11:36:19.771Z,5284.00
2019-03-08T11:37:19.732Z,3272.00
2019-03-08T11:38:19.688Z,3416.00
2019-03-08T11:39:19.646Z,3260.00
2019-03-08T11:40:19.607Z,3216.00
2019-03-08T11:41:19.569Z,3056.00
2019-03-08T11:42:19.529Z,3132.00
2019-03-08T11:43:19.491Z,3580.00
2019-03-08T11:44:19.456Z,3364.00
2019-03-08T11:45:19.413Z,3128.00
2019-03-08T11:46:19.370Z,3540.00
2019-03-08T11:47:19.325Z,5504.00
2019-03-08T11:48:19.286Z,3600.00
2019-03-08T11:49:19.251Z,3472.00
2019-03-08T11:50:19.208Z,5380.00
2019-03-08T11:51:19.170Z,3028.00
2019-03-08T11:52:19.126Z,2892.00
2019-03-08T11:53:19.091Z,4300.00
2019-03-08T11:54:19.050Z,5040.00
2019-03-08T11:55:19.011Z,2732.00
2019-03-08T11:56:18.971Z,2816.00
2019-03-08T11:57:18.929Z,2996.00
2019-03-08T11:58:18.886Z,3380.00
2019-03-08T11:59:18.844Z,2940.00
2019-03-08T12:00:18.808Z,3448.00
2019-03-08T12:01:18.765Z,2988.00
2019-03-08T12:02:18.730Z,3256.00
2019-03-08T12:03:18.690Z,4316.00
2019-03-08T12:04:18.651Z,5680.00
2019-03-08T12:05:18.608Z,3708.00
2019-03-08T12:06:18.565Z,3696.00
2019-03-08T12:07:18.524Z,3752.00
2019-03-08T12:08:18.490Z,5368.00
2019-03-08T12:09:18.448Z,5404.00
2019-03-08T12:10:18.405Z,5504.00
2019-03-08T12:11:18.365Z,5720.00
2019-03-08T12:12:18.323Z,5708.00
2019-03-08T12:13:18.302Z,5428.00
2019-03-08T12:14:18.248Z,5396.00
2019-03-08T12:15:18.211Z,5600.00
2019-03-08T12:16:19.078Z,5184.00
2019-03-08T12:17:18.166Z,5444.00
2019-03-08T12:18:18.086Z,5392.00
2019-03-08T12:19:18.045Z,4088.00
2019-03-08T12:20:18.008Z,5684.00
2019-03-08T12:21:17.968Z,5488.00
2019-03-08T12:22:17.929Z,5496.00
2019-03-08T12:23:17.894Z,5440.00
2019-03-08T12:24:17.846Z,5392.00
2019-03-08T12:25:17.808Z,5392.00
2019-03-08T12:26:17.778Z,5260.00
2019-03-08T12:27:17.736Z,5308.00
2019-03-08T12:28:17.698Z,5056.00
2019-03-08T12:29:17.653Z,4976.00
2019-03-08T12:30:17.615Z,4972.00
2019-03-08T12:31:17.573Z,5172.00
2019-03-08T12:32:17.533Z,5308.00
2019-03-08T12:33:17.492Z,5236.00
2019-03-08T12:34:17.458Z,4956.00
2019-03-08T12:35:17.418Z,4660.00
2019-03-08T12:36:17.381Z,5024.00
2019-03-08T12:37:17.337Z,3964.00
2019-03-08T12:38:17.304Z,5644.00
2019-03-08T12:39:17.255Z,5628.00
2019-03-08T12:40:17.222Z,3036.00
2019-03-08T12:41:17.182Z,4960.00
2019-03-08T12:42:17.139Z,5036.00
2019-03-08T12:43:17.132Z,4836.00
2019-03-08T12:44:17.060Z,4812.00
2019-03-08T12:45:17.022Z,5152.00
2019-03-08T12:46:16.985Z,4852.00
2019-03-08T12:47:16.947Z,4724.00
2019-03-08T12:48:23.649Z,4748.00
2019-03-08T12:49:16.908Z,4688.00
2019-03-08T12:50:16.825Z,4728.00
2019-03-08T12:51:16.785Z,4688.00
2019-03-08T12:52:16.745Z,4720.00
2019-03-08T12:53:16.707Z,4720.00
2019-03-08T12:54:16.671Z,4684.00
2019-03-08T12:55:16.635Z,4640.00
2019-03-08T12:56:16.591Z,4696.00
2019-03-08T12:57:16.550Z,4824.00
2019-03-08T12:58:16.514Z,4712.00
2019-03-08T12:59:16.477Z,4832.00
2019-03-08T13:00:16.437Z,5376.00
2019-03-08T13:01:16.394Z,5720.00
2019-03-08T13:02:16.358Z,5668.00
2019-03-08T13:03:16.315Z,3492.00
2019-03-08T13:04:16.278Z,3548.00
2019-03-08T13:05:16.239Z,3460.00
2019-03-08T13:06:16.200Z,3164.00
2019-03-08T13:07:16.165Z,2872.00
2019-03-08T13:08:16.130Z,2872.00
2019-03-08T13:09:16.135Z,2760.00
2019-03-08T13:10:16.071Z,2836.00